sensor_id;sensor_type;location;lat;lon;timestamp;P1;durP1;ratioP1;P2;durP2;ratioP2
2564;SDS011;1292;48.020;7.822;2023-01-28T06:48:01;6.50;;;3.80;;
2564;SDS011;1292;48.020;7.822;2023-01-28T06:50:28;7.53;;;4.70;;
2564;SDS011;1292;48.020;7.822;2023-01-28T06:52:55;6.40;;;4.23;;
2564;SDS011;1292;48.020;7.822;2023-01-28T06:55:22;6.50;;;3.90;;
2564;SDS011;1292;48.020;7.822;2023-01-28T06:57:48;6.30;;;4.27;;
2564;SDS011;1292;48.020;7.822;2023-01-28T07:00:16;3.97;;;3.60;;
2564;SDS011;1292;48.020;7.822;2023-01-28T07:02:44;5.60;;;3.73;;
2564;SDS011;1292;48.020;7.822;2023-01-28T07:05:11;5.80;;;4.33;;
2564;SDS011;1292;48.020;7.822;2023-01-28T07:07:38;6.20;;;3.90;;
2564;SDS011;1292;48.020;7.822;2023-01-28T07:10:07;6.40;;;4.40;;
2564;SDS011;1292;48.020;7.822;2023-01-28T07:12:34;6.87;;;4.47;;
2564;SDS011;1292;48.020;7.822;2023-01-28T07:15:01;5.13;;;4.07;;
2564;SDS011;1292;48.020;7.822;2023-01-28T07:17:28;5.20;;;3.80;;
2564;SDS011;1292;48.020;7.822;2023-01-28T07:19:56;4.17;;;3.63;;
2564;SDS011;1292;48.020;7.822;2023-01-28T07:22:23;3.90;;;3.47;;
2564;SDS011;1292;48.020;7.822;2023-01-28T07:24:50;5.47;;;3.97;;
2564;SDS011;1292;48.020;7.822;2023-01-28T07:27:16;5.57;;;4.10;;
2564;SDS011;1292;48.020;7.822;2023-01-28T07:29:43;6.17;;;4.03;;
2564;SDS011;1292;48.020;7.822;2023-01-28T07:32:10;6.67;;;4.63;;
2564;SDS011;1292;48.020;7.822;2023-01-28T07:34:37;4.80;;;3.27;;
2564;SDS011;1292;48.020;7.822;2023-01-28T07:37:07;6.57;;;4.10;;
2564;SDS011;1292;48.020;7.822;2023-01-28T07:39:34;5.20;;;3.37;;
2564;SDS011;1292;48.020;7.822;2023-01-28T07:42:01;4.13;;;3.53;;
2564;SDS011;1292;48.020;7.822;2023-01-28T07:44:28;4.43;;;3.73;;
2564;SDS011;1292;48.020;7.822;2023-01-28T07:46:55;4.50;;;3.20;;
2564;SDS011;1292;48.020;7.822;2023-01-28T07:49:22;4.53;;;3.53;;
2564;SDS011;1292;48.020;7.822;2023-01-28T07:51:48;4.73;;;3.73;;
2564;SDS011;1292;48.020;7.822;2023-01-28T07:54:17;4.30;;;3.90;;
2564;SDS011;1292;48.020;7.822;2023-01-28T07:56:43;4.73;;;3.20;;
2564;SDS011;1292;48.020;7.822;2023-01-28T07:59:10;5.30;;;3.30;;
2564;SDS011;1292;48.020;7.822;2023-01-28T08:01:37;3.80;;;2.90;;
2564;SDS011;1292;48.020;7.822;2023-01-28T08:04:04;4.63;;;3.80;;
2564;SDS011;1292;48.020;7.822;2023-01-28T08:06:31;2.97;;;2.70;;
2564;SDS011;1292;48.020;7.822;2023-01-28T08:09:01;4.50;;;3.90;;
2564;SDS011;1292;48.020;7.822;2023-01-28T08:11:31;7.40;;;3.80;;
2564;SDS011;1292;48.020;7.822;2023-01-28T08:13:58;5.27;;;4.40;;
2564;SDS011;1292;48.020;7.822;2023-01-28T08:16:25;4.90;;;3.20;;
2564;SDS011;1292;48.020;7.822;2023-01-28T08:18:53;6.27;;;4.57;;
2564;SDS011;1292;48.020;7.822;2023-01-28T08:21:20;4.70;;;3.67;;
2564;SDS011;1292;48.020;7.822;2023-01-28T08:23:47;4.27;;;3.53;;
2564;SDS011;1292;48.020;7.822;2023-01-28T08:26:14;3.50;;;3.17;;
2564;SDS011;1292;48.020;7.822;2023-01-28T08:28:42;3.73;;;2.70;;
2564;SDS011;1292;48.020;7.822;2023-01-28T08:31:08;3.30;;;2.80;;
2564;SDS011;1292;48.020;7.822;2023-01-28T08:33:35;3.57;;;3.13;;
2564;SDS011;1292;48.020;7.822;2023-01-28T08:36:02;3.50;;;3.20;;
2564;SDS011;1292;48.020;7.822;2023-01-28T08:38:30;3.03;;;2.67;;
2564;SDS011;1292;48.020;7.822;2023-01-28T08:40:57;4.03;;;3.63;;
2564;SDS011;1292;48.020;7.822;2023-01-28T08:43:24;3.50;;;3.13;;
2564;SDS011;1292;48.020;7.822;2023-01-28T08:45:52;4.07;;;3.17;;
2564;SDS011;1292;48.020;7.822;2023-01-28T08:48:19;6.00;;;4.73;;
2564;SDS011;1292;48.020;7.822;2023-01-28T08:50:46;3.43;;;3.13;;
2564;SDS011;1292;48.020;7.822;2023-01-28T08:53:15;3.70;;;3.10;;
2564;SDS011;1292;48.020;7.822;2023-01-28T08:55:44;3.67;;;3.10;;
2564;SDS011;1292;48.020;7.822;2023-01-28T08:58:12;4.07;;;2.60;;
2564;SDS011;1292;48.020;7.822;2023-01-28T09:00:40;4.13;;;3.40;;
2564;SDS011;1292;48.020;7.822;2023-01-28T09:03:09;5.40;;;3.63;;
2564;SDS011;1292;48.020;7.822;2023-01-28T09:05:36;4.23;;;3.83;;
2564;SDS011;1292;48.020;7.822;2023-01-28T09:08:05;4.67;;;3.07;;
2564;SDS011;1292;48.020;7.822;2023-01-28T09:10:33;3.43;;;3.03;;
2564;SDS011;1292;48.020;7.822;2023-01-28T09:13:03;4.50;;;3.00;;
2564;SDS011;1292;48.020;7.822;2023-01-28T09:15:30;3.30;;;2.90;;
2564;SDS011;1292;48.020;7.822;2023-01-28T09:17:57;4.50;;;2.80;;
2564;SDS011;1292;48.020;7.822;2023-01-28T09:20:26;3.20;;;2.90;;
2564;SDS011;1292;48.020;7.822;2023-01-28T09:22:53;3.47;;;2.67;;
2564;SDS011;1292;48.020;7.822;2023-01-28T09:25:20;3.90;;;3.50;;
2564;SDS011;1292;48.020;7.822;2023-01-28T09:27:46;5.70;;;3.00;;
2564;SDS011;1292;48.020;7.822;2023-01-28T09:30:13;3.10;;;2.43;;
2564;SDS011;1292;48.020;7.822;2023-01-28T09:32:40;4.67;;;4.00;;
2564;SDS011;1292;48.020;7.822;2023-01-28T09:35:07;3.50;;;2.80;;
2564;SDS011;1292;48.020;7.822;2023-01-28T09:37:36;5.87;;;3.10;;
2564;SDS011;1292;48.020;7.822;2023-01-28T09:40:03;5.10;;;2.90;;
2564;SDS011;1292;48.020;7.822;2023-01-28T09:42:35;3.63;;;2.33;;
2564;SDS011;1292;48.020;7.822;2023-01-28T09:45:14;3.80;;;2.83;;
2564;SDS011;1292;48.020;7.822;2023-01-28T09:47:43;6.37;;;3.73;;
2564;SDS011;1292;48.020;7.822;2023-01-28T09:50:14;4.20;;;3.10;;
2564;SDS011;1292;48.020;7.822;2023-01-28T09:52:50;2.97;;;2.67;;
2564;SDS011;1292;48.020;7.822;2023-01-28T09:55:23;5.60;;;2.90;;
2564;SDS011;1292;48.020;7.822;2023-01-28T09:57:56;5.03;;;3.90;;
2564;SDS011;1292;48.020;7.822;2023-01-28T10:00:23;3.70;;;3.23;;
2564;SDS011;1292;48.020;7.822;2023-01-28T10:03:00;3.37;;;3.00;;
2564;SDS011;1292;48.020;7.822;2023-01-28T10:05:49;7.93;;;3.43;;
2564;SDS011;1292;48.020;7.822;2023-01-28T10:08:32;4.83;;;3.20;;
2564;SDS011;1292;48.020;7.822;2023-01-28T10:11:07;3.33;;;3.03;;
2564;SDS011;1292;48.020;7.822;2023-01-28T10:13:42;3.93;;;2.70;;
2564;SDS011;1292;48.020;7.822;2023-01-28T10:16:16;4.60;;;2.80;;
2564;SDS011;1292;48.020;7.822;2023-01-28T10:18:55;3.10;;;2.77;;
2564;SDS011;1292;48.020;7.822;2023-01-28T10:21:30;4.33;;;3.10;;
2564;SDS011;1292;48.020;7.822;2023-01-28T10:24:04;4.97;;;2.93;;
2564;SDS011;1292;48.020;7.822;2023-01-28T10:26:37;3.40;;;3.07;;
2564;SDS011;1292;48.020;7.822;2023-01-28T10:29:09;3.77;;;2.53;;
2564;SDS011;1292;48.020;7.822;2023-01-28T10:31:41;2.93;;;2.60;;
2564;SDS011;1292;48.020;7.822;2023-01-28T10:34:15;4.83;;;3.30;;
2564;SDS011;1292;48.020;7.822;2023-01-28T10:36:42;12.93;;;8.70;;
2564;SDS011;1292;48.020;7.822;2023-01-28T10:39:10;6.63;;;5.30;;
2564;SDS011;1292;48.020;7.822;2023-01-28T10:41:40;3.00;;;2.70;;
2564;SDS011;1292;48.020;7.822;2023-01-28T10:44:08;4.93;;;2.97;;
2564;SDS011;1292;48.020;7.822;2023-01-28T10:46:42;3.17;;;2.70;;
2564;SDS011;1292;48.020;7.822;2023-01-28T10:49:12;5.00;;;4.50;;
2564;SDS011;1292;48.020;7.822;2023-01-28T10:51:42;3.73;;;3.43;;
2564;SDS011;1292;48.020;7.822;2023-01-28T10:54:18;3.00;;;2.70;;
2564;SDS011;1292;48.020;7.822;2023-01-28T10:56:47;3.80;;;2.63;;
2564;SDS011;1292;48.020;7.822;2023-01-28T10:59:19;3.57;;;3.20;;
2564;SDS011;1292;48.020;7.822;2023-01-28T11:01:51;3.30;;;2.40;;
2564;SDS011;1292;48.020;7.822;2023-01-28T11:04:21;3.73;;;3.00;;
2564;SDS011;1292;48.020;7.822;2023-01-28T11:06:58;2.83;;;2.60;;
2564;SDS011;1292;48.020;7.822;2023-01-28T11:09:28;2.57;;;2.37;;
2564;SDS011;1292;48.020;7.822;2023-01-28T11:11:56;3.47;;;2.87;;
2564;SDS011;1292;48.020;7.822;2023-01-28T11:14:25;3.80;;;2.73;;
2564;SDS011;1292;48.020;7.822;2023-01-28T11:16:53;3.33;;;3.03;;
2564;SDS011;1292;48.020;7.822;2023-01-28T11:19:23;5.40;;;3.33;;
2564;SDS011;1292;48.020;7.822;2023-01-28T11:21:54;3.00;;;2.70;;
2564;SDS011;1292;48.020;7.822;2023-01-28T11:24:24;4.07;;;3.27;;
2564;SDS011;1292;48.020;7.822;2023-01-28T11:26:55;3.47;;;3.07;;
2564;SDS011;1292;48.020;7.822;2023-01-28T11:29:25;3.53;;;3.20;;
2564;SDS011;1292;48.020;7.822;2023-01-28T11:31:55;3.73;;;3.23;;
2564;SDS011;1292;48.020;7.822;2023-01-28T11:34:25;4.47;;;3.27;;
2564;SDS011;1292;48.020;7.822;2023-01-28T11:36:53;4.30;;;3.90;;
2564;SDS011;1292;48.020;7.822;2023-01-28T11:39:27;3.47;;;3.17;;
2564;SDS011;1292;48.020;7.822;2023-01-28T11:42:03;4.43;;;2.90;;
2564;SDS011;1292;48.020;7.822;2023-01-28T11:44:38;5.23;;;3.17;;
2564;SDS011;1292;48.020;7.822;2023-01-28T11:50:10;3.50;;;2.70;;
2564;SDS011;1292;48.020;7.822;2023-01-28T11:52:49;3.23;;;2.37;;
2564;SDS011;1292;48.020;7.822;2023-01-28T11:55:34;3.30;;;2.80;;
2564;SDS011;1292;48.020;7.822;2023-01-28T11:58:10;5.30;;;3.60;;
2564;SDS011;1292;48.020;7.822;2023-01-28T12:00:48;4.00;;;2.77;;
2564;SDS011;1292;48.020;7.822;2023-01-28T12:03:35;4.40;;;3.80;;
2564;SDS011;1292;48.020;7.822;2023-01-28T12:06:21;6.10;;;3.30;;
2564;SDS011;1292;48.020;7.822;2023-01-28T12:09:00;5.53;;;3.17;;
2564;SDS011;1292;48.020;7.822;2023-01-28T12:11:42;4.47;;;3.10;;
2564;SDS011;1292;48.020;7.822;2023-01-28T12:14:47;5.63;;;3.27;;
2564;SDS011;1292;48.020;7.822;2023-01-28T12:17:31;4.00;;;2.90;;
2564;SDS011;1292;48.020;7.822;2023-01-28T12:20:11;5.90;;;3.93;;
2564;SDS011;1292;48.020;7.822;2023-01-28T12:22:52;4.20;;;3.70;;
2564;SDS011;1292;48.020;7.822;2023-01-28T12:25:43;8.60;;;7.30;;
2564;SDS011;1292;48.020;7.822;2023-01-28T12:28:23;3.90;;;3.17;;
2564;SDS011;1292;48.020;7.822;2023-01-28T12:31:08;4.10;;;3.47;;
2564;SDS011;1292;48.020;7.822;2023-01-28T12:33:58;4.87;;;3.43;;
2564;SDS011;1292;48.020;7.822;2023-01-28T12:36:50;3.73;;;3.37;;
2564;SDS011;1292;48.020;7.822;2023-01-28T12:39:26;5.80;;;3.43;;
2564;SDS011;1292;48.020;7.822;2023-01-28T12:42:04;4.97;;;3.20;;
2564;SDS011;1292;48.020;7.822;2023-01-28T12:44:36;3.23;;;2.67;;
2564;SDS011;1292;48.020;7.822;2023-01-28T12:47:11;5.10;;;4.13;;
2564;SDS011;1292;48.020;7.822;2023-01-28T12:49:42;4.33;;;3.43;;
2564;SDS011;1292;48.020;7.822;2023-01-28T12:52:14;3.87;;;3.43;;
2564;SDS011;1292;48.020;7.822;2023-01-28T12:54:47;5.30;;;3.57;;
2564;SDS011;1292;48.020;7.822;2023-01-28T12:57:22;3.73;;;3.20;;
2564;SDS011;1292;48.020;7.822;2023-01-28T12:59:52;7.57;;;4.77;;
2564;SDS011;1292;48.020;7.822;2023-01-28T13:02:30;4.07;;;3.13;;
2564;SDS011;1292;48.020;7.822;2023-01-28T13:05:03;8.47;;;3.60;;
2564;SDS011;1292;48.020;7.822;2023-01-28T13:07:34;3.60;;;3.30;;
2564;SDS011;1292;48.020;7.822;2023-01-28T13:10:10;4.43;;;3.67;;
2564;SDS011;1292;48.020;7.822;2023-01-28T13:12:43;4.53;;;3.30;;
2564;SDS011;1292;48.020;7.822;2023-01-28T13:15:11;3.97;;;3.57;;
2564;SDS011;1292;48.020;7.822;2023-01-28T13:17:53;7.10;;;3.80;;
2564;SDS011;1292;48.020;7.822;2023-01-28T13:20:28;4.43;;;3.83;;
2564;SDS011;1292;48.020;7.822;2023-01-28T13:22:59;5.03;;;3.90;;
2564;SDS011;1292;48.020;7.822;2023-01-28T13:25:27;4.20;;;3.37;;
2564;SDS011;1292;48.020;7.822;2023-01-28T13:27:55;4.00;;;3.60;;
2564;SDS011;1292;48.020;7.822;2023-01-28T13:30:24;4.50;;;3.50;;
2564;SDS011;1292;48.020;7.822;2023-01-28T13:32:55;3.90;;;3.57;;
2564;SDS011;1292;48.020;7.822;2023-01-28T13:35:27;4.13;;;3.73;;
2564;SDS011;1292;48.020;7.822;2023-01-28T13:37:57;3.73;;;3.43;;
2564;SDS011;1292;48.020;7.822;2023-01-28T13:40:31;5.00;;;3.87;;
2564;SDS011;1292;48.020;7.822;2023-01-28T13:43:00;4.03;;;2.67;;
2564;SDS011;1292;48.020;7.822;2023-01-28T13:45:29;4.67;;;4.13;;
2564;SDS011;1292;48.020;7.822;2023-01-28T13:47:59;5.83;;;4.10;;
2564;SDS011;1292;48.020;7.822;2023-01-28T13:50:32;4.90;;;4.40;;
2564;SDS011;1292;48.020;7.822;2023-01-28T13:53:06;5.20;;;3.90;;
2564;SDS011;1292;48.020;7.822;2023-01-28T13:55:47;5.07;;;3.63;;
2564;SDS011;1292;48.020;7.822;2023-01-28T14:11:07;4.63;;;3.47;;
2564;SDS011;1292;48.020;7.822;2023-01-28T14:14:00;4.77;;;3.63;;
2564;SDS011;1292;48.020;7.822;2023-01-28T14:16:43;5.30;;;3.40;;
2564;SDS011;1292;48.020;7.822;2023-01-28T14:19:16;9.37;;;5.47;;
2564;SDS011;1292;48.020;7.822;2023-01-28T14:21:46;3.90;;;3.13;;
2564;SDS011;1292;48.020;7.822;2023-01-28T14:24:15;7.70;;;4.90;;
2564;SDS011;1292;48.020;7.822;2023-01-28T14:26:45;4.03;;;3.17;;
2564;SDS011;1292;48.020;7.822;2023-01-28T14:29:33;8.30;;;5.60;;
2564;SDS011;1292;48.020;7.822;2023-01-28T14:32:11;5.90;;;3.30;;
2564;SDS011;1292;48.020;7.822;2023-01-28T14:34:41;4.93;;;3.63;;
2564;SDS011;1292;48.020;7.822;2023-01-28T14:37:10;6.57;;;4.10;;
2564;SDS011;1292;48.020;7.822;2023-01-28T14:39:41;6.17;;;4.20;;
2564;SDS011;1292;48.020;7.822;2023-01-28T14:42:13;6.20;;;4.40;;
2564;SDS011;1292;48.020;7.822;2023-01-28T14:44:47;7.70;;;4.27;;
2564;SDS011;1292;48.020;7.822;2023-01-28T14:47:40;6.50;;;4.57;;
2564;SDS011;1292;48.020;7.822;2023-01-28T14:50:26;7.70;;;5.17;;
2564;SDS011;1292;48.020;7.822;2023-01-28T14:53:03;7.87;;;5.33;;
2564;SDS011;1292;48.020;7.822;2023-01-28T14:55:57;8.00;;;7.20;;
2564;SDS011;1292;48.020;7.822;2023-01-28T14:58:34;7.20;;;4.53;;
2564;SDS011;1292;48.020;7.822;2023-01-28T15:01:04;5.30;;;4.80;;
2564;SDS011;1292;48.020;7.822;2023-01-28T15:03:49;6.83;;;5.50;;
2564;SDS011;1292;48.020;7.822;2023-01-28T15:06:17;6.13;;;4.83;;
2564;SDS011;1292;48.020;7.822;2023-01-28T15:08:45;5.77;;;5.27;;
2564;SDS011;1292;48.020;7.822;2023-01-28T15:11:14;3.90;;;3.60;;
2564;SDS011;1292;48.020;7.822;2023-01-28T15:13:44;5.77;;;4.03;;
2564;SDS011;1292;48.020;7.822;2023-01-28T15:16:15;5.87;;;4.93;;
2564;SDS011;1292;48.020;7.822;2023-01-28T15:18:45;6.67;;;4.07;;
2564;SDS011;1292;48.020;7.822;2023-01-28T15:21:17;7.40;;;6.70;;
2564;SDS011;1292;48.020;7.822;2023-01-28T15:23:46;8.83;;;6.00;;
2564;SDS011;1292;48.020;7.822;2023-01-28T15:26:19;4.20;;;3.80;;
2564;SDS011;1292;48.020;7.822;2023-01-28T15:28:48;4.03;;;3.27;;
2564;SDS011;1292;48.020;7.822;2023-01-28T15:31:20;5.10;;;4.43;;
2564;SDS011;1292;48.020;7.822;2023-01-28T15:33:58;4.27;;;3.00;;
2564;SDS011;1292;48.020;7.822;2023-01-28T15:36:26;4.00;;;3.50;;
2564;SDS011;1292;48.020;7.822;2023-01-28T15:38:54;6.33;;;4.80;;
2564;SDS011;1292;48.020;7.822;2023-01-28T15:41:23;4.07;;;3.00;;
2564;SDS011;1292;48.020;7.822;2023-01-28T15:43:54;6.33;;;4.47;;
2564;SDS011;1292;48.020;7.822;2023-01-28T15:46:21;4.90;;;3.63;;
2564;SDS011;1292;48.020;7.822;2023-01-28T15:48:49;4.63;;;3.70;;
2564;SDS011;1292;48.020;7.822;2023-01-28T15:51:23;4.43;;;3.27;;
2564;SDS011;1292;48.020;7.822;2023-01-28T15:53:56;6.33;;;4.57;;
2564;SDS011;1292;48.020;7.822;2023-01-28T15:56:28;9.87;;;6.87;;
2564;SDS011;1292;48.020;7.822;2023-01-28T15:59:01;6.40;;;5.53;;
2564;SDS011;1292;48.020;7.822;2023-01-28T16:01:34;7.90;;;5.47;;
2564;SDS011;1292;48.020;7.822;2023-01-28T16:04:01;7.30;;;5.10;;
2564;SDS011;1292;48.020;7.822;2023-01-28T16:06:30;5.80;;;4.50;;
2564;SDS011;1292;48.020;7.822;2023-01-28T16:09:01;8.37;;;5.30;;
2564;SDS011;1292;48.020;7.822;2023-01-28T16:11:31;10.50;;;7.40;;
2564;SDS011;1292;48.020;7.822;2023-01-28T16:14:01;7.77;;;5.80;;
2564;SDS011;1292;48.020;7.822;2023-01-28T16:16:29;8.17;;;5.70;;
2564;SDS011;1292;48.020;7.822;2023-01-28T16:18:58;8.53;;;6.33;;
2564;SDS011;1292;48.020;7.822;2023-01-28T16:21:26;7.53;;;5.57;;
2564;SDS011;1292;48.020;7.822;2023-01-28T16:23:59;5.97;;;5.37;;
2564;SDS011;1292;48.020;7.822;2023-01-28T16:26:28;6.40;;;4.50;;
2564;SDS011;1292;48.020;7.822;2023-01-28T16:28:59;7.77;;;5.83;;
2564;SDS011;1292;48.020;7.822;2023-01-28T16:31:36;9.03;;;6.00;;
2564;SDS011;1292;48.020;7.822;2023-01-28T16:34:03;13.73;;;12.40;;
2564;SDS011;1292;48.020;7.822;2023-01-28T16:36:30;15.10;;;12.90;;
2564;SDS011;1292;48.020;7.822;2023-01-28T16:38:56;12.80;;;11.50;;
2564;SDS011;1292;48.020;7.822;2023-01-28T16:41:24;19.97;;;17.60;;
2564;SDS011;1292;48.020;7.822;2023-01-28T16:43:55;8.33;;;7.57;;
2564;SDS011;1292;48.020;7.822;2023-01-28T16:46:25;8.33;;;6.17;;
2564;SDS011;1292;48.020;7.822;2023-01-28T16:48:52;10.87;;;8.60;;
2564;SDS011;1292;48.020;7.822;2023-01-28T16:51:19;12.40;;;8.60;;
2564;SDS011;1292;48.020;7.822;2023-01-28T16:53:46;17.90;;;16.23;;
2564;SDS011;1292;48.020;7.822;2023-01-28T16:56:14;19.10;;;17.57;;
2564;SDS011;1292;48.020;7.822;2023-01-28T16:58:43;13.50;;;8.67;;
2564;SDS011;1292;48.020;7.822;2023-01-28T17:01:11;8.17;;;7.27;;
2564;SDS011;1292;48.020;7.822;2023-01-28T17:03:38;13.03;;;11.33;;
2564;SDS011;1292;48.020;7.822;2023-01-28T17:06:05;11.43;;;7.33;;
2564;SDS011;1292;48.020;7.822;2023-01-28T17:08:41;9.20;;;7.10;;
2564;SDS011;1292;48.020;7.822;2023-01-28T17:11:08;9.60;;;7.00;;
2564;SDS011;1292;48.020;7.822;2023-01-28T17:13:35;10.80;;;7.60;;
2564;SDS011;1292;48.020;7.822;2023-01-28T17:16:03;8.17;;;6.20;;
2564;SDS011;1292;48.020;7.822;2023-01-28T17:18:32;8.73;;;7.40;;
2564;SDS011;1292;48.020;7.822;2023-01-28T17:20:59;9.30;;;7.23;;
2564;SDS011;1292;48.020;7.822;2023-01-28T17:23:26;12.20;;;7.90;;
2564;SDS011;1292;48.020;7.822;2023-01-28T17:25:53;11.30;;;7.80;;
2564;SDS011;1292;48.020;7.822;2023-01-28T17:28:20;9.77;;;5.73;;
2564;SDS011;1292;48.020;7.822;2023-01-28T17:30:47;11.03;;;8.40;;
2564;SDS011;1292;48.020;7.822;2023-01-28T17:33:15;17.43;;;10.27;;
2564;SDS011;1292;48.020;7.822;2023-01-28T17:35:45;9.40;;;8.50;;
2564;SDS011;1292;48.020;7.822;2023-01-28T17:38:13;9.07;;;7.33;;
2564;SDS011;1292;48.020;7.822;2023-01-28T17:40:39;11.60;;;7.97;;
2564;SDS011;1292;48.020;7.822;2023-01-28T17:43:06;9.03;;;6.00;;
2564;SDS011;1292;48.020;7.822;2023-01-28T17:45:33;10.63;;;7.57;;
2564;SDS011;1292;48.020;7.822;2023-01-28T17:48:00;7.50;;;6.70;;
2564;SDS011;1292;48.020;7.822;2023-01-28T17:50:27;8.23;;;7.30;;
2564;SDS011;1292;48.020;7.822;2023-01-28T17:52:55;9.03;;;7.47;;
2564;SDS011;1292;48.020;7.822;2023-01-28T17:55:22;13.47;;;9.83;;
2564;SDS011;1292;48.020;7.822;2023-01-28T17:57:49;8.40;;;6.50;;
2564;SDS011;1292;48.020;7.822;2023-01-28T18:00:17;10.17;;;7.20;;
2564;SDS011;1292;48.020;7.822;2023-01-28T18:02:45;9.47;;;7.13;;
2564;SDS011;1292;48.020;7.822;2023-01-28T18:05:14;11.97;;;8.37;;
2564;SDS011;1292;48.020;7.822;2023-01-28T18:07:41;9.80;;;6.80;;
2564;SDS011;1292;48.020;7.822;2023-01-28T18:10:11;8.73;;;6.50;;
2564;SDS011;1292;48.020;7.822;2023-01-28T18:12:39;11.27;;;8.70;;
2564;SDS011;1292;48.020;7.822;2023-01-28T18:15:06;10.13;;;8.13;;
2564;SDS011;1292;48.020;7.822;2023-01-28T18:17:34;10.50;;;8.23;;
2564;SDS011;1292;48.020;7.822;2023-01-28T18:20:01;14.70;;;8.30;;
2564;SDS011;1292;48.020;7.822;2023-01-28T18:22:30;9.83;;;7.47;;
2564;SDS011;1292;48.020;7.822;2023-01-28T18:24:57;9.70;;;7.90;;
2564;SDS011;1292;48.020;7.822;2023-01-28T18:27:25;8.87;;;7.20;;
2564;SDS011;1292;48.020;7.822;2023-01-28T18:29:52;14.07;;;8.00;;
2564;SDS011;1292;48.020;7.822;2023-01-28T18:32:19;14.40;;;10.33;;
2564;SDS011;1292;48.020;7.822;2023-01-28T18:34:46;9.70;;;7.77;;
2564;SDS011;1292;48.020;7.822;2023-01-28T18:37:13;13.40;;;9.17;;
2564;SDS011;1292;48.020;7.822;2023-01-28T18:39:39;11.40;;;8.47;;
2564;SDS011;1292;48.020;7.822;2023-01-28T18:42:06;18.03;;;11.53;;
2564;SDS011;1292;48.020;7.822;2023-01-28T18:44:35;15.70;;;10.20;;
2564;SDS011;1292;48.020;7.822;2023-01-28T18:47:02;9.60;;;6.50;;
2564;SDS011;1292;48.020;7.822;2023-01-28T18:49:29;13.77;;;9.63;;
2564;SDS011;1292;48.020;7.822;2023-01-28T18:51:56;10.60;;;7.90;;
2564;SDS011;1292;48.020;7.822;2023-01-28T18:54:23;14.67;;;7.83;;
2564;SDS011;1292;48.020;7.822;2023-01-28T18:56:50;8.40;;;6.57;;
2564;SDS011;1292;48.020;7.822;2023-01-28T18:59:17;8.70;;;6.57;;
2564;SDS011;1292;48.020;7.822;2023-01-28T19:01:46;6.83;;;5.80;;
2564;SDS011;1292;48.020;7.822;2023-01-28T19:04:13;10.23;;;8.13;;
2564;SDS011;1292;48.020;7.822;2023-01-28T19:06:40;8.83;;;6.87;;
2564;SDS011;1292;48.020;7.822;2023-01-28T19:09:08;7.53;;;5.80;;
2564;SDS011;1292;48.020;7.822;2023-01-28T19:11:36;8.00;;;5.83;;
2564;SDS011;1292;48.020;7.822;2023-01-28T19:14:04;13.07;;;7.10;;
2564;SDS011;1292;48.020;7.822;2023-01-28T19:16:31;13.00;;;7.93;;
2564;SDS011;1292;48.020;7.822;2023-01-28T19:19:02;11.00;;;8.33;;
2564;SDS011;1292;48.020;7.822;2023-01-28T19:21:30;11.10;;;7.97;;
2564;SDS011;1292;48.020;7.822;2023-01-28T19:23:58;11.83;;;7.13;;
2564;SDS011;1292;48.020;7.822;2023-01-28T19:26:26;11.03;;;5.80;;
2564;SDS011;1292;48.020;7.822;2023-01-28T19:28:55;9.17;;;6.47;;
2564;SDS011;1292;48.020;7.822;2023-01-28T19:31:23;14.97;;;9.80;;
2564;SDS011;1292;48.020;7.822;2023-01-28T19:33:52;8.03;;;5.73;;
2564;SDS011;1292;48.020;7.822;2023-01-28T19:36:21;8.00;;;5.90;;
2564;SDS011;1292;48.020;7.822;2023-01-28T19:38:48;13.57;;;9.40;;
2564;SDS011;1292;48.020;7.822;2023-01-28T19:41:15;12.77;;;10.60;;
2564;SDS011;1292;48.020;7.822;2023-01-28T19:43:42;10.90;;;9.43;;
2564;SDS011;1292;48.020;7.822;2023-01-28T19:46:12;10.90;;;7.03;;
2564;SDS011;1292;48.020;7.822;2023-01-28T19:48:40;11.07;;;8.13;;
2564;SDS011;1292;48.020;7.822;2023-01-28T19:51:08;8.23;;;6.37;;
2564;SDS011;1292;48.020;7.822;2023-01-28T19:53:38;11.57;;;7.33;;
2564;SDS011;1292;48.020;7.822;2023-01-28T19:56:07;9.50;;;6.53;;
2564;SDS011;1292;48.020;7.822;2023-01-28T19:58:36;9.90;;;7.63;;
2564;SDS011;1292;48.020;7.822;2023-01-28T20:01:04;10.47;;;7.57;;
2564;SDS011;1292;48.020;7.822;2023-01-28T20:03:34;7.73;;;5.67;;
2564;SDS011;1292;48.020;7.822;2023-01-28T20:06:04;6.10;;;5.20;;
2564;SDS011;1292;48.020;7.822;2023-01-28T20:08:32;8.07;;;5.70;;
2564;SDS011;1292;48.020;7.822;2023-01-28T20:11:05;8.73;;;6.23;;
2564;SDS011;1292;48.020;7.822;2023-01-28T20:13:34;8.73;;;7.33;;
2564;SDS011;1292;48.020;7.822;2023-01-28T20:16:02;9.47;;;7.60;;
2564;SDS011;1292;48.020;7.822;2023-01-28T20:18:30;10.27;;;6.77;;
2564;SDS011;1292;48.020;7.822;2023-01-28T20:20:57;9.60;;;6.13;;
2564;SDS011;1292;48.020;7.822;2023-01-28T20:23:24;8.30;;;7.17;;
2564;SDS011;1292;48.020;7.822;2023-01-28T20:25:52;12.57;;;7.83;;
2564;SDS011;1292;48.020;7.822;2023-01-28T20:28:21;12.20;;;8.00;;
2564;SDS011;1292;48.020;7.822;2023-01-28T20:30:48;11.20;;;8.47;;
2564;SDS011;1292;48.020;7.822;2023-01-28T20:33:16;10.80;;;7.83;;
2564;SDS011;1292;48.020;7.822;2023-01-28T20:35:43;10.13;;;8.07;;
2564;SDS011;1292;48.020;7.822;2023-01-28T20:38:10;11.83;;;8.17;;
2564;SDS011;1292;48.020;7.822;2023-01-28T20:40:38;10.00;;;7.70;;
2564;SDS011;1292;48.020;7.822;2023-01-28T20:43:07;18.40;;;11.20;;
2564;SDS011;1292;48.020;7.822;2023-01-28T20:45:36;10.27;;;8.10;;
2564;SDS011;1292;48.020;7.822;2023-01-28T20:48:03;25.20;;;15.00;;
2564;SDS011;1292;48.020;7.822;2023-01-28T20:50:30;17.30;;;8.80;;
2564;SDS011;1292;48.020;7.822;2023-01-28T20:52:57;14.43;;;9.70;;
2564;SDS011;1292;48.020;7.822;2023-01-28T20:55:24;11.30;;;8.50;;
2564;SDS011;1292;48.020;7.822;2023-01-28T20:57:52;15.40;;;12.00;;
2564;SDS011;1292;48.020;7.822;2023-01-28T21:00:19;8.63;;;7.63;;
2564;SDS011;1292;48.020;7.822;2023-01-28T21:02:48;13.10;;;8.50;;
2564;SDS011;1292;48.020;7.822;2023-01-28T21:05:15;10.73;;;7.60;;
2564;SDS011;1292;48.020;7.822;2023-01-28T21:07:42;13.30;;;7.93;;
2564;SDS011;1292;48.020;7.822;2023-01-28T21:10:10;16.17;;;9.43;;
2564;SDS011;1292;48.020;7.822;2023-01-28T21:12:37;12.07;;;8.90;;
2564;SDS011;1292;48.020;7.822;2023-01-28T21:15:04;12.63;;;9.40;;
2564;SDS011;1292;48.020;7.822;2023-01-28T21:17:32;12.20;;;8.53;;
2564;SDS011;1292;48.020;7.822;2023-01-28T21:20:00;11.13;;;7.70;;
2564;SDS011;1292;48.020;7.822;2023-01-28T21:22:27;15.87;;;9.70;;
2564;SDS011;1292;48.020;7.822;2023-01-28T21:24:54;10.03;;;6.87;;
2564;SDS011;1292;48.020;7.822;2023-01-28T21:27:20;14.80;;;9.83;;
2564;SDS011;1292;48.020;7.822;2023-01-28T21:29:47;11.00;;;7.67;;
2564;SDS011;1292;48.020;7.822;2023-01-28T21:32:14;10.53;;;7.73;;
2564;SDS011;1292;48.020;7.822;2023-01-28T21:34:41;14.50;;;10.03;;
2564;SDS011;1292;48.020;7.822;2023-01-28T21:37:10;9.83;;;7.00;;
2564;SDS011;1292;48.020;7.822;2023-01-28T21:39:37;14.10;;;9.27;;
2564;SDS011;1292;48.020;7.822;2023-01-28T21:42:04;11.23;;;9.53;;
2564;SDS011;1292;48.020;7.822;2023-01-28T21:44:31;7.37;;;6.63;;
2564;SDS011;1292;48.020;7.822;2023-01-28T21:46:58;10.53;;;7.40;;
2564;SDS011;1292;48.020;7.822;2023-01-28T21:49:25;11.00;;;7.80;;
2564;SDS011;1292;48.020;7.822;2023-01-28T21:51:52;8.00;;;6.10;;
2564;SDS011;1292;48.020;7.822;2023-01-28T21:54:20;9.03;;;6.27;;
2564;SDS011;1292;48.020;7.822;2023-01-28T21:56:47;7.23;;;5.63;;
2564;SDS011;1292;48.020;7.822;2023-01-28T21:59:16;13.83;;;7.50;;
